Terminal Aerodrome Forecast
Issued by NWS Sterling, VA

Current Version | Previous Version | Graphics & Text | Print | Product List | Glossary On
Versions: 1 2 3 4 5 6 7 8 9 10 11 12 13 14 15 16 17 18 19 20 21 22 23
000
FTUS41 KLWX 301100
TAFIAD
TAF
KIAD 301127Z 3012/3118 31014G24KT P6SM SCT050 BKN100
     FM301900 32022G34KT P6SM SCT040
     FM310400 31016G26KT P6SM FEW250
     FM311100 31011G19KT P6SM FEW250=

USA.gov is the U.S. government's official web portal to all federal, state and local government web resources and services.